createdAt,value
2018-06-13T00:00:01.622Z,90.90
2018-06-13T00:02:30.343Z,90.50
2018-06-13T00:04:59.061Z,90.80
2018-06-13T00:07:27.798Z,91.00
2018-06-13T00:09:56.554Z,90.70
2018-06-13T00:12:25.257Z,91.10
2018-06-13T00:14:54.009Z,90.70
2018-06-13T00:17:22.741Z,90.90
2018-06-13T00:19:51.453Z,90.80
2018-06-13T00:22:20.185Z,90.80
2018-06-13T00:24:48.882Z,91.00
2018-06-13T00:29:46.046Z,91.00
2018-06-13T00:34:43.153Z,91.30
2018-06-13T00:37:11.897Z,91.30
2018-06-13T00:39:40.548Z,91.20
2018-06-13T00:42:09.300Z,91.10
2018-06-13T00:44:38.006Z,91.00
2018-06-13T00:47:06.749Z,91.10
2018-06-13T00:49:35.441Z,91.30
2018-06-13T00:52:04.197Z,91.00
2018-06-13T00:54:32.897Z,91.20
2018-06-13T00:57:01.638Z,91.20
2018-06-13T00:59:30.372Z,91.40
2018-06-13T01:01:59.111Z,91.60
2018-06-13T01:04:27.889Z,91.40
2018-06-13T01:06:56.593Z,91.60
2018-06-13T01:09:25.313Z,91.40
2018-06-13T01:11:54.014Z,91.50
2018-06-13T01:14:22.748Z,91.60
2018-06-13T01:16:51.469Z,91.70
2018-06-13T01:19:20.214Z,92.00
2018-06-13T01:21:48.925Z,91.80
2018-06-13T01:24:18.457Z,91.80
2018-06-13T01:26:47.177Z,91.90
2018-06-13T01:29:15.925Z,91.90
2018-06-13T01:31:44.645Z,91.90
2018-06-13T01:36:41.778Z,91.90
2018-06-13T01:39:10.473Z,92.10
2018-06-13T01:41:39.185Z,92.20
2018-06-13T01:44:07.941Z,92.50
2018-06-13T01:46:36.652Z,92.20
2018-06-13T01:49:05.368Z,92.20
2018-06-13T01:51:34.098Z,92.40
2018-06-13T01:54:02.793Z,92.30
2018-06-13T01:56:31.509Z,92.40
2018-06-13T01:59:00.261Z,92.30
2018-06-13T02:01:29.013Z,92.20
2018-06-13T02:03:57.726Z,92.40
2018-06-13T02:06:26.465Z,92.40
2018-06-13T02:08:55.190Z,92.30
2018-06-13T02:11:23.905Z,92.10
2018-06-13T02:13:52.663Z,92.30
2018-06-13T02:16:21.357Z,92.50
2018-06-13T02:18:50.061Z,92.20
2018-06-13T02:21:18.785Z,92.40
2018-06-13T02:23:47.515Z,92.40
2018-06-13T02:26:16.257Z,92.70
2018-06-13T02:28:44.965Z,92.50
2018-06-13T02:31:13.702Z,92.60
2018-06-13T02:33:42.399Z,92.80
2018-06-13T02:36:11.322Z,92.70
2018-06-13T02:38:40.109Z,92.70
2018-06-13T02:41:09.875Z,92.70
2018-06-13T02:43:38.596Z,92.90
2018-06-13T02:46:07.305Z,93.10
2018-06-13T02:48:36.038Z,93.50
2018-06-13T02:51:04.790Z,92.80
2018-06-13T02:53:33.649Z,92.20
2018-06-13T02:56:02.406Z,91.00
2018-06-13T02:58:31.133Z,91.00
2018-06-13T03:00:59.873Z,90.30
2018-06-13T03:03:28.585Z,90.20
2018-06-13T03:05:57.294Z,90.40
2018-06-13T03:08:26.025Z,90.10
2018-06-13T03:10:54.733Z,90.30
2018-06-13T03:13:23.449Z,90.10
2018-06-13T03:15:52.185Z,89.80
2018-06-13T03:18:20.885Z,89.70
2018-06-13T03:20:49.699Z,88.70
2018-06-13T03:23:18.360Z,88.80
2018-06-13T03:25:47.093Z,87.70
2018-06-13T03:28:15.804Z,87.20
2018-06-13T03:30:44.546Z,86.90
2018-06-13T03:33:13.249Z,86.30
2018-06-13T03:35:41.977Z,86.50
2018-06-13T03:38:10.699Z,86.00
2018-06-13T03:40:39.398Z,86.00
2018-06-13T03:43:08.278Z,86.20
2018-06-13T03:45:36.984Z,85.50
2018-06-13T03:48:05.717Z,85.60
2018-06-13T03:50:34.485Z,85.40
2018-06-13T03:53:03.181Z,85.80
2018-06-13T03:55:31.881Z,85.60
2018-06-13T03:58:00.593Z,85.50
2018-06-13T04:00:29.386Z,84.90
2018-06-13T04:02:58.085Z,86.00
2018-06-13T04:05:26.821Z,86.70
2018-06-13T04:07:55.569Z,86.10
2018-06-13T04:10:24.261Z,87.20
2018-06-13T04:12:53.157Z,87.90
2018-06-13T04:15:21.869Z,88.60
2018-06-13T04:17:50.589Z,88.90
2018-06-13T04:20:19.297Z,89.50
2018-06-13T04:22:48.033Z,89.90
2018-06-13T04:25:16.833Z,90.20
2018-06-13T04:27:45.529Z,90.20
2018-06-13T04:30:14.259Z,90.40
2018-06-13T04:32:43.032Z,90.40
2018-06-13T04:35:11.697Z,90.50
2018-06-13T04:37:40.573Z,90.60
2018-06-13T04:40:09.286Z,90.60
2018-06-13T04:42:37.981Z,90.70
2018-06-13T04:45:06.819Z,90.10
2018-06-13T04:47:35.550Z,90.70
2018-06-13T04:50:04.252Z,90.70
2018-06-13T04:52:32.953Z,90.80
2018-06-13T04:55:01.659Z,91.00
2018-06-13T04:57:30.437Z,90.80
2018-06-13T04:59:59.179Z,90.30
2018-06-13T05:02:27.881Z,90.40
2018-06-13T05:04:56.593Z,90.40
2018-06-13T05:07:25.369Z,90.10
2018-06-13T05:09:54.101Z,90.50
2018-06-13T05:12:22.869Z,90.40
2018-06-13T05:14:51.628Z,90.40
2018-06-13T05:17:20.320Z,90.30
2018-06-13T05:19:49.042Z,90.00
2018-06-13T05:22:17.749Z,89.30
2018-06-13T05:24:46.489Z,89.90
2018-06-13T05:27:15.227Z,88.70
2018-06-13T05:29:43.937Z,88.70
2018-06-13T05:32:12.662Z,89.00
2018-06-13T05:34:41.374Z,88.60
2018-06-13T05:37:10.102Z,88.50
2018-06-13T05:39:38.799Z,88.60
2018-06-13T05:42:07.578Z,88.50
2018-06-13T05:44:36.301Z,88.30
2018-06-13T05:47:05.014Z,89.10
2018-06-13T05:49:33.736Z,87.80
2018-06-13T05:52:02.511Z,88.50
2018-06-13T05:54:31.247Z,88.00
2018-06-13T05:56:59.941Z,88.80
2018-06-13T05:59:28.658Z,89.00
2018-06-13T06:01:57.361Z,87.60
2018-06-13T06:04:26.131Z,87.80
2018-06-13T06:06:54.881Z,87.60
2018-06-13T06:09:23.597Z,87.70
2018-06-13T06:11:52.326Z,89.20
2018-06-13T06:14:21.217Z,87.70
2018-06-13T06:16:49.945Z,88.00
2018-06-13T06:19:18.730Z,88.20
2018-06-13T06:21:47.439Z,88.70
2018-06-13T06:24:16.187Z,88.70
2018-06-13T06:26:44.909Z,88.10
2018-06-13T06:29:13.665Z,87.30
2018-06-13T06:31:42.374Z,87.50
2018-06-13T06:34:11.105Z,86.60
2018-06-13T06:36:39.807Z,88.00
2018-06-13T06:39:08.841Z,89.70
2018-06-13T06:41:37.560Z,89.70
2018-06-13T06:44:06.457Z,88.90
2018-06-13T06:46:35.207Z,89.20
2018-06-13T06:49:03.926Z,88.00
2018-06-13T06:54:08.819Z,88.10
2018-06-13T06:56:38.074Z,87.50
2018-06-13T06:59:06.757Z,87.00
2018-06-13T07:01:42.080Z,87.20
2018-06-13T07:04:10.885Z,86.30
2018-06-13T07:06:39.601Z,88.30
2018-06-13T07:09:09.360Z,86.40
2018-06-13T07:11:38.122Z,85.60
2018-06-13T07:14:06.857Z,86.60
2018-06-13T07:16:35.622Z,85.70
2018-06-13T07:19:04.392Z,86.10
2018-06-13T07:21:33.049Z,87.30
2018-06-13T07:24:01.789Z,87.30
2018-06-13T07:26:31.594Z,86.10
2018-06-13T07:29:00.313Z,85.90
2018-06-13T07:31:29.013Z,86.30
2018-06-13T07:34:00.788Z,86.50
2018-06-13T07:36:29.513Z,87.60
2018-06-13T07:38:58.207Z,86.60
2018-06-13T07:41:27.168Z,87.00
2018-06-13T07:43:55.871Z,86.40
2018-06-13T07:46:24.637Z,87.00
2018-06-13T07:48:53.381Z,87.40
2018-06-13T07:51:22.086Z,86.60
2018-06-13T07:53:50.790Z,82.80
2018-06-13T07:56:19.508Z,82.90
2018-06-13T07:58:48.242Z,81.00
2018-06-13T08:01:16.918Z,81.90
2018-06-13T08:03:45.673Z,81.80
2018-06-13T08:06:14.413Z,82.50
2018-06-13T08:08:43.226Z,81.80
2018-06-13T08:11:11.869Z,80.50
2018-06-13T08:13:40.622Z,81.00
2018-06-13T08:16:09.341Z,80.10
2018-06-13T08:18:38.089Z,80.80
2018-06-13T08:21:06.845Z,78.80
2018-06-13T08:26:04.075Z,79.00
2018-06-13T08:28:32.734Z,77.70
2018-06-13T08:31:01.434Z,75.50
2018-06-13T08:33:30.177Z,75.70
2018-06-13T08:35:58.914Z,77.50
2018-06-13T08:38:27.653Z,75.40
2018-06-13T08:40:56.594Z,75.60
2018-06-13T08:43:25.309Z,75.70
2018-06-13T08:45:54.019Z,76.10
2018-06-13T08:50:51.129Z,75.50
2018-06-13T08:53:19.816Z,71.90
2018-06-13T08:55:48.564Z,73.20
2018-06-13T08:58:17.290Z,74.70
2018-06-13T09:00:46.009Z,72.90
2018-06-13T09:03:14.832Z,73.10
2018-06-13T09:05:43.482Z,73.70
2018-06-13T09:08:12.182Z,75.00
2018-06-13T09:10:40.930Z,73.60
2018-06-13T09:13:09.666Z,72.90
2018-06-13T09:15:38.353Z,72.10
2018-06-13T09:18:07.057Z,72.90
2018-06-13T09:20:35.789Z,71.60
2018-06-13T09:23:04.507Z,70.60
2018-06-13T09:25:33.216Z,71.10
2018-06-13T09:28:01.937Z,72.40
2018-06-13T09:30:31.121Z,71.60
2018-06-13T09:32:59.849Z,70.30
2018-06-13T09:35:28.554Z,68.90
2018-06-13T09:37:57.253Z,70.30
2018-06-13T09:40:25.998Z,72.10
2018-06-13T09:42:54.717Z,70.80
2018-06-13T09:45:23.451Z,72.00
2018-06-13T09:47:52.152Z,72.10
2018-06-13T09:50:20.851Z,71.40
2018-06-13T09:52:49.565Z,70.70
2018-06-13T09:55:18.289Z,69.30
2018-06-13T09:57:47.013Z,68.70
2018-06-13T10:00:21.089Z,71.00
2018-06-13T10:02:49.813Z,71.50
2018-06-13T10:05:18.534Z,71.80
2018-06-13T10:07:47.259Z,71.40
2018-06-13T10:10:16.001Z,72.60
2018-06-13T10:12:44.735Z,72.20
2018-06-13T10:15:13.451Z,72.30
2018-06-13T10:17:42.165Z,72.50
2018-06-13T10:20:10.866Z,71.60
2018-06-13T10:22:39.589Z,72.20
2018-06-13T10:25:08.293Z,72.90
2018-06-13T10:27:40.177Z,71.60
2018-06-13T10:30:08.921Z,73.00
2018-06-13T10:32:37.626Z,73.00
2018-06-13T10:35:06.509Z,72.00
2018-06-13T10:37:35.205Z,72.80
2018-06-13T10:40:03.918Z,72.70
2018-06-13T10:42:32.669Z,73.10
2018-06-13T10:45:01.378Z,71.80
2018-06-13T10:47:30.078Z,72.80
2018-06-13T10:49:58.789Z,72.80
2018-06-13T10:52:27.649Z,73.60
2018-06-13T10:54:56.417Z,74.00
2018-06-13T10:57:25.137Z,74.30
2018-06-13T10:59:53.952Z,74.70
2018-06-13T11:02:22.653Z,74.60
2018-06-13T11:04:51.359Z,74.10
2018-06-13T11:07:20.068Z,73.80
2018-06-13T11:09:48.757Z,72.00
2018-06-13T11:12:17.487Z,72.40
2018-06-13T11:14:46.197Z,70.70
2018-06-13T11:17:14.922Z,70.40
2018-06-13T11:19:43.761Z,71.70
2018-06-13T11:22:12.472Z,71.40
2018-06-13T11:24:41.185Z,71.70
2018-06-13T11:27:09.930Z,69.80
2018-06-13T11:29:38.641Z,68.90
2018-06-13T11:32:07.368Z,69.70
2018-06-13T11:34:36.093Z,69.20
2018-06-13T11:37:04.902Z,70.00
2018-06-13T11:39:33.602Z,69.40
2018-06-13T11:42:02.321Z,69.00
2018-06-13T11:44:31.079Z,67.40
2018-06-13T11:46:59.761Z,68.20
2018-06-13T11:49:28.492Z,67.40
2018-06-13T11:51:57.205Z,67.50
2018-06-13T11:54:25.937Z,68.40
2018-06-13T11:56:54.790Z,69.00
2018-06-13T11:59:23.502Z,68.70
2018-06-13T12:01:52.274Z,68.60
2018-06-13T12:04:20.934Z,68.50
2018-06-13T12:06:49.642Z,70.20
2018-06-13T12:09:18.355Z,70.30
2018-06-13T12:11:47.093Z,71.50
2018-06-13T12:14:15.923Z,70.90
2018-06-13T12:16:44.702Z,72.10
2018-06-13T12:19:13.373Z,70.80
2018-06-13T12:21:42.082Z,70.90
2018-06-13T12:24:10.825Z,71.70
2018-06-13T12:26:39.581Z,71.10
2018-06-13T12:29:08.333Z,70.00
2018-06-13T12:31:38.130Z,70.10
2018-06-13T12:34:06.830Z,71.20
2018-06-13T12:36:35.627Z,69.20
2018-06-13T12:39:07.090Z,67.80
2018-06-13T12:41:35.894Z,68.00
2018-06-13T12:44:04.674Z,67.00
2018-06-13T12:46:33.422Z,66.70
2018-06-13T12:49:02.261Z,68.60
2018-06-13T12:51:31.046Z,67.50
2018-06-13T12:54:00.062Z,67.90
2018-06-13T12:56:28.761Z,67.40
2018-06-13T12:58:57.659Z,67.00
2018-06-13T13:01:26.245Z,70.00
2018-06-13T13:03:55.117Z,70.80
2018-06-13T13:06:23.841Z,68.80
2018-06-13T13:08:52.563Z,69.20
2018-06-13T13:11:21.278Z,68.60
2018-06-13T13:13:50.081Z,68.30
2018-06-13T13:16:18.867Z,69.00
2018-06-13T13:18:47.594Z,68.60
2018-06-13T13:21:16.423Z,68.30
2018-06-13T13:23:45.149Z,67.60
2018-06-13T13:26:13.853Z,66.80
2018-06-13T13:28:42.600Z,67.90
2018-06-13T13:31:11.310Z,68.10
2018-06-13T13:33:40.070Z,68.30
2018-06-13T13:36:08.806Z,69.10
2018-06-13T13:38:37.505Z,71.10
2018-06-13T13:41:06.289Z,70.60
2018-06-13T13:43:35.168Z,72.80
2018-06-13T13:46:03.979Z,69.70
2018-06-13T13:48:32.690Z,71.40
2018-06-13T13:51:01.429Z,73.00
2018-06-13T13:53:30.133Z,72.70
2018-06-13T13:55:58.886Z,72.40
2018-06-13T13:58:27.595Z,73.30
2018-06-13T14:00:56.306Z,72.10
2018-06-13T14:03:39.435Z,71.70
2018-06-13T14:06:08.154Z,71.60
2018-06-13T14:08:36.865Z,72.00
2018-06-13T14:11:05.582Z,71.10
2018-06-13T14:13:34.289Z,70.90
2018-06-13T14:16:03.022Z,72.30
2018-06-13T14:18:31.774Z,73.00
2018-06-13T14:21:00.537Z,71.80
2018-06-13T14:23:29.274Z,73.90
2018-06-13T14:25:58.073Z,72.40
2018-06-13T14:28:49.835Z,72.80
2018-06-13T14:31:18.571Z,71.50
2018-06-13T14:33:47.293Z,71.80
2018-06-13T14:36:16.045Z,70.00
2018-06-13T14:38:44.737Z,69.90
2018-06-13T14:41:13.541Z,70.60
2018-06-13T14:43:42.261Z,70.40
2018-06-13T14:46:11.019Z,71.30
2018-06-13T14:48:39.713Z,70.80
2018-06-13T14:51:08.425Z,69.90
2018-06-13T14:53:37.237Z,70.80
2018-06-13T14:56:20.433Z,71.80
2018-06-13T14:58:49.149Z,70.50
2018-06-13T15:01:17.932Z,71.90
2018-06-13T15:03:46.647Z,72.00
2018-06-13T15:06:15.398Z,72.20
2018-06-13T15:08:44.125Z,71.60
2018-06-13T15:11:12.941Z,72.70
2018-06-13T15:16:32.680Z,72.80
2018-06-13T15:19:01.405Z,71.20
2018-06-13T15:21:30.134Z,73.00
2018-06-13T15:24:03.085Z,74.40
2018-06-13T15:26:31.781Z,74.10
2018-06-13T15:29:00.528Z,71.90
2018-06-13T15:31:42.785Z,73.50
2018-06-13T15:34:11.501Z,73.30
2018-06-13T15:36:40.217Z,74.60
2018-06-13T15:39:11.385Z,74.80
2018-06-13T15:41:40.185Z,74.40
2018-06-13T15:44:09.013Z,72.90
2018-06-13T15:46:37.720Z,71.60
2018-06-13T15:49:06.493Z,71.90
2018-06-13T15:51:35.217Z,74.40
2018-06-13T15:54:03.941Z,74.10
2018-06-13T15:59:01.605Z,71.90
2018-06-13T16:01:30.599Z,72.80
2018-06-13T16:03:59.342Z,72.20
2018-06-13T16:06:28.089Z,72.10
2018-06-13T16:08:56.846Z,69.90
2018-06-13T16:11:25.620Z,71.00
2018-06-13T16:13:54.680Z,70.50
2018-06-13T16:16:23.402Z,69.00
2018-06-13T16:18:52.122Z,69.70
2018-06-13T16:21:21.105Z,67.60
2018-06-13T16:23:49.845Z,68.30
2018-06-13T16:26:18.581Z,69.20
2018-06-13T16:28:47.346Z,69.80
2018-06-13T16:31:16.055Z,69.70
2018-06-13T16:33:44.749Z,70.50
2018-06-13T16:36:13.478Z,71.60
2018-06-13T16:38:42.226Z,70.10
2018-06-13T16:41:10.961Z,70.30
2018-06-13T16:43:39.674Z,71.00
2018-06-13T16:46:08.410Z,71.50
2018-06-13T16:48:37.193Z,71.90
2018-06-13T16:51:17.174Z,70.40
2018-06-13T16:53:53.009Z,72.30
2018-06-13T16:56:22.022Z,71.60
2018-06-13T16:58:51.235Z,71.80
2018-06-13T17:01:20.290Z,70.00
2018-06-13T17:03:49.005Z,70.10
2018-06-13T17:06:17.721Z,70.20
2018-06-13T17:08:46.533Z,70.00
2018-06-13T17:11:15.241Z,69.40
2018-06-13T17:13:43.961Z,69.70
2018-06-13T17:16:12.669Z,69.10
2018-06-13T17:18:41.380Z,69.50
2018-06-13T17:21:10.084Z,70.70
2018-06-13T17:23:38.805Z,69.30
2018-06-13T17:26:07.546Z,69.70
2018-06-13T17:28:36.253Z,70.60
2018-06-13T17:31:05.010Z,70.60
2018-06-13T17:33:33.863Z,72.00
2018-06-13T17:36:02.609Z,72.00
2018-06-13T17:38:31.318Z,71.90
2018-06-13T17:43:28.525Z,72.70
2018-06-13T17:45:57.241Z,74.10
2018-06-13T17:48:25.946Z,73.50
2018-06-13T17:50:54.837Z,73.90
2018-06-13T17:53:23.617Z,74.90
2018-06-13T17:56:00.656Z,75.10
2018-06-13T17:58:29.960Z,75.40
2018-06-13T18:00:58.841Z,76.70
2018-06-13T18:03:27.610Z,75.40
2018-06-13T18:05:56.318Z,76.10
2018-06-13T18:08:25.066Z,74.80
2018-06-13T18:10:53.809Z,76.50
2018-06-13T18:13:22.567Z,77.70
2018-06-13T18:15:51.350Z,78.20
2018-06-13T18:18:20.109Z,79.70
2018-06-13T18:20:48.821Z,79.10
2018-06-13T18:23:17.589Z,78.10
2018-06-13T18:25:46.285Z,77.30
2018-06-13T18:28:15.037Z,78.10
2018-06-13T18:30:43.797Z,77.90
2018-06-13T18:33:12.622Z,78.80
2018-06-13T18:35:41.401Z,78.90
2018-06-13T18:38:10.107Z,77.60
2018-06-13T18:40:38.860Z,78.20
2018-06-13T18:43:07.574Z,78.40
2018-06-13T18:45:36.594Z,79.50
2018-06-13T18:48:05.309Z,81.00
2018-06-13T18:50:34.178Z,78.60
2018-06-13T18:53:02.885Z,80.70
2018-06-13T18:58:00.119Z,83.00
2018-06-13T19:00:29.840Z,83.20
2018-06-13T19:02:58.533Z,83.20
2018-06-13T19:05:27.265Z,83.70
2018-06-13T19:07:55.962Z,83.20
2018-06-13T19:10:24.902Z,84.20
2018-06-13T19:12:53.649Z,82.40
2018-06-13T19:15:22.354Z,85.40
2018-06-13T19:17:51.074Z,85.30
2018-06-13T19:20:19.810Z,85.50
2018-06-13T19:22:48.533Z,86.10
2018-06-13T19:25:17.284Z,86.50
2018-06-13T19:27:45.974Z,86.50
2018-06-13T19:30:14.723Z,87.30
2018-06-13T19:32:44.400Z,87.90
2018-06-13T19:35:13.107Z,89.30
2018-06-13T19:37:41.838Z,89.80
2018-06-13T19:40:10.562Z,90.30
2018-06-13T19:42:39.300Z,89.60
2018-06-13T19:45:08.022Z,88.50
2018-06-13T19:47:42.314Z,89.50
2018-06-13T19:50:11.006Z,90.50
2018-06-13T19:52:45.161Z,90.60
2018-06-13T19:55:19.076Z,90.60
2018-06-13T19:57:47.827Z,91.40
2018-06-13T20:00:16.525Z,90.90
2018-06-13T20:02:50.461Z,91.30
2018-06-13T20:05:24.670Z,91.40
2018-06-13T20:07:53.533Z,91.90
2018-06-13T20:10:22.538Z,91.60
2018-06-13T20:12:56.749Z,92.10
2018-06-13T20:15:30.925Z,92.10
2018-06-13T20:18:04.821Z,92.20
2018-06-13T20:20:33.577Z,92.30
2018-06-13T20:23:02.293Z,91.80
2018-06-13T20:28:10.313Z,91.60
2018-06-13T20:30:44.556Z,91.30
2018-06-13T20:33:13.252Z,91.90
2018-06-13T20:35:42.114Z,91.60
2018-06-13T20:38:10.837Z,91.60
2018-06-13T20:40:39.557Z,92.00
2018-06-13T20:43:08.289Z,92.00
2018-06-13T20:45:37.010Z,92.00
2018-06-13T20:48:05.754Z,92.00
2018-06-13T20:50:34.549Z,91.90
2018-06-13T20:53:03.333Z,91.90
2018-06-13T20:55:32.066Z,92.40
2018-06-13T20:58:00.833Z,92.40
2018-06-13T21:00:29.561Z,92.50
2018-06-13T21:02:58.297Z,92.10
2018-06-13T21:05:29.281Z,92.30
2018-06-13T21:07:58.005Z,92.60
2018-06-13T21:12:55.325Z,93.10
2018-06-13T21:15:24.169Z,93.30
2018-06-13T21:17:52.913Z,93.20
2018-06-13T21:20:21.667Z,92.80
2018-06-13T21:22:51.325Z,92.30
2018-06-13T21:25:20.079Z,92.60
2018-06-13T21:27:48.781Z,92.80
2018-06-13T21:30:17.497Z,92.60
2018-06-13T21:32:46.225Z,92.90
2018-06-13T21:35:14.952Z,92.80
2018-06-13T21:37:43.649Z,92.30
2018-06-13T21:40:12.469Z,92.70
2018-06-13T21:42:41.143Z,93.20
2018-06-13T21:45:09.881Z,92.90
2018-06-13T21:47:38.629Z,93.50
2018-06-13T21:50:07.351Z,93.20
2018-06-13T21:52:36.074Z,93.50
2018-06-13T21:55:04.960Z,94.00
2018-06-13T21:57:33.741Z,93.80
2018-06-13T22:00:02.729Z,94.20
2018-06-13T22:02:31.454Z,94.10
2018-06-13T22:05:00.194Z,93.70
2018-06-13T22:07:28.905Z,93.90
2018-06-13T22:09:57.657Z,93.90
2018-06-13T22:12:26.445Z,94.00
2018-06-13T22:14:55.174Z,94.10
2018-06-13T22:17:23.890Z,94.40
2018-06-13T22:19:52.605Z,94.20
2018-06-13T22:22:21.365Z,94.30
2018-06-13T22:24:50.675Z,93.80
2018-06-13T22:29:48.334Z,94.50
2018-06-13T22:32:17.046Z,94.20
2018-06-13T22:34:45.821Z,94.10
2018-06-13T22:37:14.549Z,94.10
2018-06-13T22:39:43.273Z,94.10
2018-06-13T22:42:11.961Z,94.60
2018-06-13T22:44:40.724Z,95.00
2018-06-13T22:47:09.523Z,95.40
2018-06-13T22:49:38.191Z,95.10
2018-06-13T22:52:06.921Z,94.30
2018-06-13T22:54:35.634Z,93.90
2018-06-13T22:57:04.369Z,94.60
2018-06-13T22:59:33.130Z,94.30
2018-06-13T23:02:01.851Z,94.30
2018-06-13T23:04:30.557Z,94.00
2018-06-13T23:06:59.301Z,93.70
2018-06-13T23:09:28.011Z,93.80
2018-06-13T23:11:56.924Z,94.40
2018-06-13T23:14:25.629Z,94.80
2018-06-13T23:19:22.924Z,94.10
2018-06-13T23:21:51.641Z,94.50
2018-06-13T23:24:20.350Z,94.80
2018-06-13T23:26:49.068Z,94.40
2018-06-13T23:29:17.817Z,94.50
2018-06-13T23:31:46.537Z,95.10
2018-06-13T23:34:15.299Z,95.20
2018-06-13T23:36:44.057Z,95.10
2018-06-13T23:39:12.868Z,93.90
2018-06-13T23:41:41.530Z,93.90
2018-06-13T23:44:10.267Z,94.40
2018-06-13T23:46:39.019Z,94.60
2018-06-13T23:49:07.896Z,94.50
2018-06-13T23:51:36.610Z,94.90
2018-06-13T23:54:05.521Z,95.10
2018-06-13T23:56:34.238Z,94.80
